Cape Texel — V7RC4 — position and weather

sailwx.info

Track history (hours):
 
Tides and Currents Weather Stations Pressure Air Temp Water Temp Dewpoint Dewpoint Depression Visibility Wind Speed Wind Dir Waves Ship Positions

Cape Texel

Last reported at 2016-Sep-07 04:33 UTC. Time now 2016-Sep-26 22:30 UTC.
Position N 01°53' E 102°24'.
Warning: this ship's position is 19 days out of date.

Length 228 m; draft 8.5 m.

Type: Ship (hazmat cat A). MMSI: 538090383.

Date/timePositionNaut miles runAvg speedWind from/ knotsBaromVisibWave heightAir tempDewpointWater temp
2016-Sep-07 04:33N 01°53' E 102°24'1111.1
2016-Sep-07 03:32N 01°49' E 102°34'1110.9
2016-Sep-07 02:34N 01°44' E 102°44'7211.3
2016-Sep-06 20:14N 01°10' E 103°47'811.4
2016-Sep-06 19:33N 01°13' E 103°54'1211.6
2016-Sep-06 18:33N 01°16' E 104°05'3 0.1
2016-Sep-05 11:06N 01°16' E 104°08'713.2
2016-Sep-05 10:33N 01°15' E 104°01'7 3.2
2016-Sep-05 08:23N 01°15' E 103°54'0 0.0
2016-Sep-05 06:32N 01°15' E 103°54'0 0.0
2016-Sep-05 02:08N 01°15' E 103°54'0 0.1
2016-Sep-05 01:08N 01°15' E 103°54'0 0.3
2016-Sep-05 00:32N 01°15' E 103°54'0 0.0
2016-Sep-04 23:26N 01°15' E 103°54'0 0.0
2016-Sep-04 20:32N 01°15' E 103°54'0 0.0
2016-Sep-04 19:26N 01°15' E 103°54'1 0.8
2016-Sep-04 18:33N 01°15' E 103°55'2 2.0
2016-Sep-04 17:33N 01°13' E 103°56'8 7.6
2016-Sep-04 16:33N 01°10' E 103°49'  
2016-Sep-02 10:19N 01°10' E 103°47'912.2
2016-Sep-02 09:33N 01°14' E 103°56'1211.9
2016-Sep-02 08:33N 01°16' E 104°07'  
Track history (hours):
 
Tides and Currents Weather Stations Pressure Air Temp Water Temp Dewpoint Dewpoint Depression Visibility Wind Speed Wind Dir Waves Ship Positions

Cape Texel

Last reported at 2016-Sep-07 04:33 UTC. Time now 2016-Sep-26 22:30 UTC.
Position N 01°53' E 102°24'.
Warning: this ship's position is 19 days out of date.

Length 228 m; draft 8.5 m.

Type: Ship (hazmat cat A). MMSI: 538090383.

Date/timePositionNaut miles runAvg speedWind from/ knotsBaromVisibWave heightAir tempDewpointWater temp
2016-Sep-07 04:33N 01°53' E 102°24'1111.1
2016-Sep-07 03:32N 01°49' E 102°34'1110.9
2016-Sep-07 02:34N 01°44' E 102°44'7211.3
2016-Sep-06 20:14N 01°10' E 103°47'811.4
2016-Sep-06 19:33N 01°13' E 103°54'1211.6
2016-Sep-06 18:33N 01°16' E 104°05'3 0.1
2016-Sep-05 11:06N 01°16' E 104°08'713.2
2016-Sep-05 10:33N 01°15' E 104°01'7 3.2
2016-Sep-05 08:23N 01°15' E 103°54'0 0.0
2016-Sep-05 06:32N 01°15' E 103°54'0 0.0
2016-Sep-05 02:08N 01°15' E 103°54'0 0.1
2016-Sep-05 01:08N 01°15' E 103°54'0 0.3
2016-Sep-05 00:32N 01°15' E 103°54'0 0.0
2016-Sep-04 23:26N 01°15' E 103°54'0 0.0
2016-Sep-04 20:32N 01°15' E 103°54'0 0.0
2016-Sep-04 19:26N 01°15' E 103°54'1 0.8
2016-Sep-04 18:33N 01°15' E 103°55'2 2.0
2016-Sep-04 17:33N 01°13' E 103°56'8 7.6
2016-Sep-04 16:33N 01°10' E 103°49'  
2016-Sep-02 10:19N 01°10' E 103°47'912.2
2016-Sep-02 09:33N 01°14' E 103°56'1211.9
2016-Sep-02 08:33N 01°16' E 104°07'  

Dump ship's entire track history